Information for Hartsfield–Jackson Atlanta International Airport

back to airport list

ICAO Code:KATL Country:United States of America
Airport Name:Hartsfield–Jackson Atlanta International Airport Is Hub:No
Latitude:33.6367 Longitude:-84.4281
Scheduled Departures:0 Scheduled Arrivals:0
Total Past Departures:1 Total Past Arrivals:1
Pilots Based:0 Current Pilot Location:0
KATL 201952Z 13004KT 10SM BKN250 15/M02 A3017 RMK AO2 SLP221 T01501017


Nearby Destination Airports

ICAO Airport Country GC Distance View
No destination airports within a 500 NM radius!


+ Show Timetable

Scheduled Departures from KATL

Flight To Destination Days Dep. Time Aircraft Info
No Scheduled Departures!


Scheduled Arrivals to KATL

Flight From Origin Days Arr. Time Aircraft Info
No Scheduled Arrivals!
+ Show Recent Flight Info

Recent Departures from KATL

Flight To Destination Pilot Flighttime Landingrate Aircraft View
ASXC44 TNCM Princess Juliana Damian Belica 04.20.21 -104 ft/m B734 View Report


Recent Arrivals to KATL

Flight From Origin Pilot Flighttime Landingrate Aircraft View
ASXC42 KASE Aspen-Pitkin County Airport Damian Belica 03.13.58 -341 ft/m B734 View Report
+ Show Pilot Information

Pilots based at KATL

Avatar Pilot ID Name Location Rank View Profile
No Pilots are based at this airport!


Pilots currently at KATL

Avatar Pilot ID Name Location Rank On Location since View Profile
Currently there are no pilots at this airport!
- Hide Map